createdAt,value
2022-09-12T00:01:19.956Z,16.15
2022-09-12T00:03:47.612Z,13.10
2022-09-12T00:06:25.460Z,18.37
2022-09-12T00:08:57.988Z,16.70
2022-09-12T00:11:25.982Z,19.23
2022-09-12T00:14:00.739Z,15.53
2022-09-12T00:16:30.365Z,17.70
2022-09-12T00:18:57.700Z,16.20
2022-09-12T00:21:25.333Z,16.25
2022-09-12T00:23:52.547Z,16.73
2022-09-12T00:26:21.050Z,15.27
2022-09-12T00:28:48.616Z,14.40
2022-09-12T00:31:24.155Z,17.50
2022-09-12T00:33:51.923Z,15.05
2022-09-12T00:36:24.572Z,16.95
2022-09-12T00:38:52.227Z,18.17
2022-09-12T00:41:33.470Z,15.90
2022-09-12T00:44:12.248Z,20.10
2022-09-12T00:47:29.144Z,23.33
2022-09-12T00:50:08.294Z,18.57
2022-09-12T00:52:47.242Z,23.63
2022-09-12T00:55:18.901Z,21.90
2022-09-12T00:57:54.576Z,21.53
2022-09-12T01:00:24.979Z,18.50
2022-09-12T01:03:06.258Z,19.50
2022-09-12T01:05:38.453Z,19.20
2022-09-12T01:08:06.155Z,18.07
2022-09-12T01:10:36.177Z,15.77
2022-09-12T01:13:08.354Z,23.27
2022-09-12T01:15:38.579Z,21.20
2022-09-12T01:18:35.950Z,19.40
2022-09-12T01:21:51.593Z,18.40
2022-09-12T01:24:42.239Z,20.30
2022-09-12T01:27:20.625Z,14.83
2022-09-12T01:30:22.150Z,13.50
2022-09-12T01:33:17.645Z,16.17
2022-09-12T01:36:19.742Z,17.57
2022-09-12T01:38:59.399Z,17.40
2022-09-12T01:41:56.014Z,14.87
2022-09-12T01:44:55.311Z,16.37
2022-09-12T01:47:34.132Z,19.83
2022-09-12T01:50:09.861Z,18.17
2022-09-12T01:53:02.697Z,17.47
2022-09-12T01:55:52.167Z,17.75
2022-09-12T01:58:29.253Z,14.73
2022-09-12T02:01:09.484Z,15.13
2022-09-12T02:03:53.480Z,19.83
2022-09-12T02:06:37.725Z,16.90
2022-09-12T02:09:20.849Z,19.77
2022-09-12T02:11:51.111Z,22.43
2022-09-12T02:14:45.598Z,19.13
2022-09-12T02:17:26.314Z,20.53
2022-09-12T02:20:00.258Z,21.88
2022-09-12T02:22:29.897Z,18.23
2022-09-12T02:25:01.014Z,22.10
2022-09-12T02:27:41.792Z,19.00
2022-09-12T02:30:10.789Z,24.67
2022-09-12T02:32:43.426Z,27.63
2022-09-12T02:35:41.161Z,23.60
2022-09-12T02:38:36.857Z,21.80
2022-09-12T02:41:04.083Z,20.20
2022-09-12T02:43:31.243Z,21.83
2022-09-12T02:45:58.218Z,21.77
2022-09-12T02:48:30.616Z,21.10
2022-09-12T02:50:57.993Z,22.03
2022-09-12T02:53:26.654Z,23.75
2022-09-12T02:55:53.758Z,22.30
2022-09-12T02:58:29.699Z,21.50
2022-09-12T03:01:20.874Z,25.20
2022-09-12T03:04:15.379Z,24.87
2022-09-12T03:06:52.787Z,24.03
2022-09-12T03:09:47.387Z,27.20
2022-09-12T03:12:50.023Z,29.37
2022-09-12T03:15:46.730Z,25.67
2022-09-12T03:18:25.619Z,26.20
2022-09-12T03:21:04.388Z,25.53
2022-09-12T03:24:08.044Z,25.03
2022-09-12T03:26:57.779Z,26.37
2022-09-12T03:29:25.562Z,23.40
2022-09-12T03:31:56.937Z,25.53
2022-09-12T03:34:26.648Z,21.23
2022-09-12T03:36:58.182Z,20.20
2022-09-12T03:39:27.076Z,19.57
2022-09-12T03:41:55.448Z,21.63
2022-09-12T03:44:22.924Z,22.87
2022-09-12T03:46:50.190Z,21.03
2022-09-12T03:49:17.641Z,22.53
2022-09-12T03:51:44.607Z,19.83
2022-09-12T03:54:11.620Z,20.60
2022-09-12T03:56:40.494Z,24.57
2022-09-12T03:59:08.271Z,26.63
2022-09-12T04:01:35.146Z,27.97
2022-09-12T04:04:05.083Z,31.87
2022-09-12T04:06:33.152Z,27.10
2022-09-12T04:09:00.190Z,23.17
2022-09-12T04:11:27.160Z,25.93
2022-09-12T04:13:54.681Z,28.53
2022-09-12T04:16:21.782Z,28.00
2022-09-12T04:18:48.917Z,20.57
2022-09-12T04:21:19.755Z,20.47
2022-09-12T04:23:46.709Z,26.83
2022-09-12T04:26:15.070Z,28.53
2022-09-12T04:28:42.408Z,26.77
2022-09-12T04:31:17.743Z,21.40
2022-09-12T04:33:46.014Z,19.93
2022-09-12T04:36:17.089Z,18.57
2022-09-12T04:38:47.153Z,17.33
2022-09-12T04:41:24.017Z,18.23
2022-09-12T04:44:04.352Z,20.57
2022-09-12T04:46:38.710Z,29.30
2022-09-12T04:49:06.357Z,22.63
2022-09-12T04:51:36.173Z,20.97
2022-09-12T04:54:11.123Z,26.60
2022-09-12T04:56:41.134Z,27.67
2022-09-12T04:59:09.147Z,23.93
2022-09-12T05:01:36.452Z,23.13
2022-09-12T05:04:03.850Z,26.43
2022-09-12T05:06:35.204Z,24.90
2022-09-12T05:09:05.835Z,23.37
2022-09-12T05:12:02.792Z,20.63
2022-09-12T05:14:23.335Z,22.93
2022-09-12T05:16:50.456Z,22.10
2022-09-12T05:19:17.756Z,21.43
2022-09-12T05:21:44.639Z,21.97
2022-09-12T05:24:12.085Z,24.23
2022-09-12T05:26:39.063Z,22.07
2022-09-12T05:29:07.294Z,24.63
2022-09-12T05:31:35.034Z,23.30
2022-09-12T05:34:07.067Z,22.37
2022-09-12T05:36:34.279Z,22.97
2022-09-12T05:39:01.844Z,25.17
2022-09-12T05:41:31.169Z,29.23
2022-09-12T05:44:05.930Z,25.40
2022-09-12T05:46:40.855Z,23.67
2022-09-12T05:49:12.063Z,24.90
2022-09-12T05:51:45.275Z,24.73
2022-09-12T05:54:15.750Z,22.03
2022-09-12T05:56:44.315Z,24.63
2022-09-12T05:59:20.705Z,22.43
2022-09-12T06:01:48.859Z,27.07
2022-09-12T06:04:16.214Z,25.73
2022-09-12T06:06:45.362Z,29.33
2022-09-12T06:09:14.953Z,29.50
2022-09-12T06:11:42.449Z,23.80
2022-09-12T06:14:12.114Z,33.53
2022-09-12T06:16:39.762Z,26.03
2022-09-12T06:19:28.080Z,27.47
2022-09-12T06:21:55.548Z,28.60
2022-09-12T06:24:22.478Z,25.33
2022-09-12T06:26:51.973Z,28.10
2022-09-12T06:29:19.654Z,26.50
2022-09-12T06:31:46.555Z,28.03
2022-09-12T06:34:15.863Z,26.13
2022-09-12T06:36:47.215Z,22.20
2022-09-12T06:39:17.846Z,21.83
2022-09-12T06:41:45.813Z,24.53
2022-09-12T06:44:19.738Z,25.23
2022-09-12T06:46:47.257Z,24.73
2022-09-12T06:49:14.327Z,28.27
2022-09-12T06:51:44.499Z,22.15
2022-09-12T06:54:16.923Z,19.30
2022-09-12T06:56:44.916Z,24.02
2022-09-12T06:59:12.025Z,18.95
2022-09-12T07:01:40.271Z,18.38
2022-09-12T07:04:07.383Z,18.05
2022-09-12T07:06:44.128Z,16.75
2022-09-12T07:09:14.158Z,15.98
2022-09-12T07:11:43.158Z,18.10
2022-09-12T07:14:14.090Z,13.43
2022-09-12T07:16:41.794Z,17.50
2022-09-12T07:19:10.103Z,15.13
2022-09-12T07:21:40.204Z,18.95
2022-09-12T07:24:10.246Z,13.40
2022-09-12T07:26:38.897Z,14.13
2022-09-12T07:29:34.911Z,14.88
2022-09-12T07:31:53.058Z,11.63
2022-09-12T07:34:19.913Z,7.88
2022-09-12T07:36:46.798Z,13.30
2022-09-12T07:39:13.678Z,11.30
2022-09-12T07:41:40.630Z,7.78
2022-09-12T07:44:07.610Z,8.85
2022-09-12T07:46:35.371Z,10.93
2022-09-12T07:49:03.052Z,8.65
2022-09-12T07:51:31.625Z,10.07
2022-09-12T07:53:59.412Z,9.48
2022-09-12T07:56:31.101Z,10.13
2022-09-12T07:58:59.076Z,8.82
2022-09-12T08:01:27.090Z,11.10
2022-09-12T08:03:59.726Z,9.30
2022-09-12T08:06:30.333Z,7.15
2022-09-12T08:08:59.089Z,12.52
2022-09-12T08:11:28.719Z,10.50
2022-09-12T08:13:57.844Z,8.18
2022-09-12T08:16:31.312Z,9.13
2022-09-12T08:19:01.064Z,8.88
2022-09-12T08:21:31.445Z,9.90
2022-09-12T08:24:02.013Z,9.75
2022-09-12T08:26:30.280Z,7.57
2022-09-12T08:28:57.318Z,11.45
2022-09-12T08:31:26.815Z,10.00
2022-09-12T08:33:57.325Z,9.07
2022-09-12T08:36:27.710Z,8.73
2022-09-12T08:38:59.843Z,12.18
2022-09-12T08:41:30.471Z,12.48
2022-09-12T08:44:39.686Z,9.13
2022-09-12T08:47:35.219Z,8.00
2022-09-12T08:50:14.900Z,8.27
2022-09-12T08:53:11.621Z,9.02
2022-09-12T08:55:56.738Z,7.60
2022-09-12T08:58:27.168Z,7.15
2022-09-12T09:01:21.175Z,9.63
2022-09-12T09:04:28.968Z,10.18
2022-09-12T09:07:37.848Z,11.80
2022-09-12T09:10:38.903Z,5.70
2022-09-12T09:13:46.462Z,6.72
2022-09-12T09:16:35.052Z,5.65
2022-09-12T09:19:11.276Z,7.28
2022-09-12T09:22:04.978Z,9.43
2022-09-12T09:24:39.309Z,5.40
2022-09-12T09:27:39.441Z,7.50
2022-09-12T09:30:13.815Z,5.85
2022-09-12T09:32:42.813Z,9.25
2022-09-12T09:35:41.222Z,7.50
2022-09-12T09:38:49.514Z,5.75
2022-09-12T09:41:38.638Z,12.45
2022-09-12T09:44:05.655Z,6.78
2022-09-12T09:46:33.331Z,8.60
2022-09-12T09:49:05.575Z,9.73
2022-09-12T09:51:39.800Z,12.05
2022-09-12T09:54:40.238Z,5.97
2022-09-12T09:57:36.127Z,8.60
2022-09-12T10:00:36.009Z,10.07
2022-09-12T10:03:14.910Z,7.57
2022-09-12T10:05:51.847Z,5.75
2022-09-12T10:08:36.991Z,7.97
2022-09-12T10:11:16.042Z,7.75
2022-09-12T10:13:58.426Z,8.55
2022-09-12T10:16:34.827Z,5.47
2022-09-12T10:19:04.047Z,7.82
2022-09-12T10:21:42.712Z,5.88
2022-09-12T10:24:24.718Z,10.85
2022-09-12T10:26:58.115Z,4.85
2022-09-12T10:29:32.518Z,6.20
2022-09-12T10:32:12.745Z,6.15
2022-09-12T10:34:45.112Z,7.50
2022-09-12T10:37:37.503Z,4.50
2022-09-12T10:40:09.368Z,3.80
2022-09-12T10:42:53.521Z,8.70
2022-09-12T10:45:30.305Z,5.07
2022-09-12T10:48:05.491Z,4.78
2022-09-12T10:50:42.130Z,6.25
2022-09-12T10:53:23.564Z,3.60
2022-09-12T10:56:28.853Z,3.28
2022-09-12T10:59:16.893Z,4.25
2022-09-12T11:02:44.002Z,2.55
2022-09-12T11:05:41.123Z,3.22
2022-09-12T11:08:17.309Z,6.43
2022-09-12T11:11:00.100Z,2.95
2022-09-12T11:14:27.991Z,6.88
2022-09-12T11:16:59.766Z,4.40
2022-09-12T11:19:56.182Z,4.18
2022-09-12T11:23:15.532Z,2.97
2022-09-12T11:26:15.942Z,2.58
2022-09-12T11:29:19.874Z,4.38
2022-09-12T11:32:25.060Z,3.35
2022-09-12T11:35:12.814Z,3.63
2022-09-12T11:38:03.860Z,2.88
2022-09-12T11:40:45.980Z,5.38
2022-09-12T11:43:53.521Z,4.22
2022-09-12T11:46:39.449Z,2.70
2022-09-12T11:49:15.751Z,5.95
2022-09-12T11:52:17.098Z,3.47
2022-09-12T11:55:22.587Z,3.42
2022-09-12T11:57:58.524Z,4.35
2022-09-12T12:01:03.457Z,2.33
2022-09-12T12:03:42.884Z,5.25
2022-09-12T12:06:19.495Z,3.78
2022-09-12T12:08:48.609Z,5.72
2022-09-12T12:11:38.389Z,5.85
2022-09-12T12:14:32.248Z,3.60
2022-09-12T12:16:59.630Z,4.72
2022-09-12T12:19:36.352Z,3.80
2022-09-12T12:22:18.754Z,3.83
2022-09-12T12:25:02.138Z,7.40
2022-09-12T12:27:55.374Z,2.63
2022-09-12T12:30:31.423Z,3.20
2022-09-12T12:33:08.256Z,3.25
2022-09-12T12:35:43.208Z,2.47
2022-09-12T12:38:38.324Z,7.00
2022-09-12T12:41:17.180Z,2.15
2022-09-12T12:43:52.451Z,3.35
2022-09-12T12:46:22.662Z,4.95
2022-09-12T12:48:54.835Z,2.88
2022-09-12T12:51:59.064Z,2.10
2022-09-12T12:54:53.242Z,2.45
2022-09-12T12:57:51.776Z,3.47
2022-09-12T13:00:29.981Z,3.38
2022-09-12T13:03:08.582Z,3.92
2022-09-12T13:05:45.960Z,2.58
2022-09-12T13:08:18.962Z,3.38
2022-09-12T13:11:05.128Z,3.17
2022-09-12T13:13:36.293Z,5.50
2022-09-12T13:16:03.802Z,3.80
2022-09-12T13:18:49.254Z,7.63
2022-09-12T13:21:20.034Z,5.97
2022-09-12T13:24:02.946Z,4.00
2022-09-12T13:26:35.918Z,4.75
2022-09-12T13:29:18.925Z,7.57
2022-09-12T13:31:53.948Z,6.65
2022-09-12T13:34:34.387Z,7.72
2022-09-12T13:37:30.039Z,4.63
2022-09-12T13:40:00.929Z,6.10
2022-09-12T13:42:42.616Z,4.28
2022-09-12T13:45:27.576Z,7.70
2022-09-12T13:48:00.874Z,4.28
2022-09-12T13:50:46.435Z,4.88
2022-09-12T13:53:18.098Z,5.97
2022-09-12T13:55:57.306Z,4.40
2022-09-12T13:58:36.038Z,6.32
2022-09-12T14:01:10.710Z,8.05
2022-09-12T14:04:13.397Z,5.05
2022-09-12T14:06:50.255Z,3.30
2022-09-12T14:09:31.097Z,4.63
2022-09-12T14:11:58.896Z,3.65
2022-09-12T14:14:49.288Z,9.98
2022-09-12T14:17:29.829Z,3.78
2022-09-12T14:19:59.359Z,3.90
2022-09-12T14:22:29.875Z,2.60
2022-09-12T14:24:59.292Z,2.30
2022-09-12T14:27:39.238Z,3.05
2022-09-12T14:30:26.141Z,4.53
2022-09-12T14:33:11.097Z,3.95
2022-09-12T14:35:44.838Z,5.85
2022-09-12T14:38:26.119Z,5.05
2022-09-12T14:41:03.148Z,2.47
2022-09-12T14:43:32.905Z,2.63
2022-09-12T14:46:23.250Z,3.05
2022-09-12T14:48:57.879Z,2.33
2022-09-12T14:51:36.849Z,2.75
2022-09-12T14:54:04.484Z,1.83
2022-09-12T14:56:44.905Z,3.47
2022-09-12T14:59:28.578Z,4.43
2022-09-12T15:02:17.173Z,2.75
2022-09-12T15:04:47.331Z,2.75
2022-09-12T15:07:34.935Z,2.58
2022-09-12T15:10:06.604Z,6.40
2022-09-12T15:12:33.853Z,3.40
2022-09-12T15:15:21.045Z,3.63
2022-09-12T15:17:47.996Z,5.80
2022-09-12T15:20:14.986Z,4.72
2022-09-12T15:22:42.782Z,2.95
2022-09-12T15:25:13.080Z,2.88
2022-09-12T15:27:43.112Z,1.90
2022-09-12T15:30:13.280Z,18.90
2022-09-12T15:32:43.539Z,3.42
2022-09-12T15:35:22.540Z,9.25
2022-09-12T15:37:50.047Z,4.38
2022-09-12T15:40:17.581Z,1.50
2022-09-12T15:42:44.748Z,4.20
2022-09-12T15:45:24.319Z,2.95
2022-09-12T15:47:51.190Z,2.72
2022-09-12T15:50:18.249Z,2.25
2022-09-12T15:52:45.439Z,4.60
2022-09-12T15:55:22.351Z,2.03
2022-09-12T15:57:49.886Z,3.63
2022-09-12T16:00:18.167Z,4.22
2022-09-12T16:02:47.668Z,6.97
2022-09-12T16:05:20.702Z,4.32
2022-09-12T16:07:49.235Z,3.13
2022-09-12T16:10:19.160Z,2.75
2022-09-12T16:12:46.389Z,3.65
2022-09-12T16:15:18.346Z,7.53
2022-09-12T16:17:45.484Z,2.25
2022-09-12T16:20:13.401Z,3.05
2022-09-12T16:22:40.932Z,2.85
2022-09-12T16:25:08.939Z,3.28
2022-09-12T16:27:36.852Z,3.35
2022-09-12T16:30:06.577Z,2.63
2022-09-12T16:32:33.535Z,1.77
2022-09-12T16:35:00.797Z,1.55
2022-09-12T16:37:28.073Z,4.00
2022-09-12T16:39:55.072Z,5.13
2022-09-12T16:42:22.321Z,3.60
2022-09-12T16:44:49.233Z,5.13
2022-09-12T16:47:16.266Z,2.10
2022-09-12T16:49:45.827Z,11.80
2022-09-12T16:52:16.440Z,6.97
2022-09-12T16:54:46.836Z,3.53
2022-09-12T16:57:13.833Z,3.88
2022-09-12T16:59:40.879Z,2.22
2022-09-12T17:02:12.181Z,2.33
2022-09-12T17:04:39.557Z,1.48
2022-09-12T17:07:07.106Z,4.85
2022-09-12T17:09:34.506Z,5.85
2022-09-12T17:12:01.805Z,3.03
2022-09-12T17:14:28.719Z,2.67
2022-09-12T17:16:55.720Z,4.18
2022-09-12T17:19:26.745Z,2.55
2022-09-12T17:21:54.214Z,3.28
2022-09-12T17:24:21.518Z,2.85
2022-09-12T17:26:49.048Z,5.75
2022-09-12T17:29:16.770Z,4.00
2022-09-12T17:31:45.241Z,4.10
2022-09-12T17:34:14.551Z,6.57
2022-09-12T17:36:45.574Z,3.47
2022-09-12T17:39:14.509Z,8.07
2022-09-12T17:41:42.685Z,2.13
2022-09-12T17:44:13.772Z,6.20
2022-09-12T17:46:41.792Z,6.95
2022-09-12T17:49:16.577Z,4.25
2022-09-12T17:51:44.219Z,4.63
2022-09-12T17:54:15.772Z,4.43
2022-09-12T17:56:45.582Z,5.40
2022-09-12T17:59:21.718Z,4.38
2022-09-12T18:02:08.281Z,4.18
2022-09-12T18:04:35.636Z,4.03
2022-09-12T18:07:02.561Z,4.82
2022-09-12T18:09:30.688Z,5.40
2022-09-12T18:11:57.836Z,7.88
2022-09-12T18:14:27.684Z,8.48
2022-09-12T18:16:57.048Z,4.05
2022-09-12T18:19:24.534Z,7.53
2022-09-12T18:21:51.455Z,10.00
2022-09-12T18:24:19.329Z,3.55
2022-09-12T18:26:46.265Z,5.53
2022-09-12T18:29:16.826Z,8.63
2022-09-12T18:31:44.725Z,5.50
2022-09-12T18:34:13.753Z,3.50
2022-09-12T18:36:50.303Z,4.13
2022-09-12T18:39:18.257Z,5.63
2022-09-12T18:41:45.185Z,3.22
2022-09-12T18:44:13.059Z,9.65
2022-09-12T18:46:40.276Z,7.43
2022-09-12T18:49:07.823Z,4.30
2022-09-12T18:51:36.600Z,6.10
2022-09-12T18:54:12.611Z,4.95
2022-09-12T18:56:43.431Z,3.28
2022-09-12T18:59:12.894Z,5.70
2022-09-12T19:01:40.190Z,3.55
2022-09-12T19:04:09.958Z,4.03
2022-09-12T19:06:43.123Z,5.45
2022-09-12T19:09:11.545Z,5.15
2022-09-12T19:11:42.542Z,4.47
2022-09-12T19:14:09.425Z,7.03
2022-09-12T19:16:37.568Z,2.35
2022-09-12T19:19:04.558Z,2.83
2022-09-12T19:21:32.929Z,2.92
2022-09-12T19:24:03.500Z,7.35
2022-09-12T19:26:30.781Z,4.40
2022-09-12T19:28:58.183Z,4.97
2022-09-12T19:31:26.107Z,3.38
2022-09-12T19:33:53.232Z,3.35
2022-09-12T19:36:43.691Z,3.88
2022-09-12T19:39:09.953Z,7.75
2022-09-12T19:41:37.133Z,5.63
2022-09-12T19:44:05.114Z,6.53
2022-09-12T19:46:32.649Z,3.72
2022-09-12T19:48:59.650Z,3.70
2022-09-12T19:51:26.701Z,5.32
2022-09-12T19:53:53.965Z,7.10
2022-09-12T19:56:21.892Z,3.80
2022-09-12T19:58:55.744Z,4.45
2022-09-12T20:01:28.270Z,5.15
2022-09-12T20:03:57.312Z,5.75
2022-09-12T20:06:25.072Z,7.90
2022-09-12T20:08:53.041Z,4.30
2022-09-12T20:11:22.069Z,4.30
2022-09-12T20:13:49.893Z,3.58
2022-09-12T20:16:28.482Z,3.67
2022-09-12T20:19:02.529Z,7.43
2022-09-12T20:21:32.269Z,3.03
2022-09-12T20:24:13.624Z,3.58
2022-09-12T20:26:41.127Z,4.78
2022-09-12T20:29:09.470Z,6.30
2022-09-12T20:31:39.567Z,7.97
2022-09-12T20:34:07.514Z,5.70
2022-09-12T20:36:34.974Z,5.78
2022-09-12T20:39:03.859Z,6.65
2022-09-12T20:41:34.054Z,3.00
2022-09-12T20:44:01.091Z,3.20
2022-09-12T20:46:28.929Z,5.50
2022-09-12T20:48:56.501Z,6.05
2022-09-12T20:51:26.499Z,4.35
2022-09-12T20:53:55.538Z,4.97
2022-09-12T20:56:23.706Z,7.15
2022-09-12T20:58:51.214Z,5.60
2022-09-12T21:01:18.262Z,3.83
2022-09-12T21:03:45.911Z,10.45
2022-09-12T21:06:17.064Z,9.25
2022-09-12T21:08:45.245Z,4.28
2022-09-12T21:11:12.375Z,8.40
2022-09-12T21:13:39.857Z,8.27
2022-09-12T21:16:18.895Z,8.48
2022-09-12T21:18:46.436Z,5.55
2022-09-12T21:21:16.083Z,4.05
2022-09-12T21:23:43.058Z,5.35
2022-09-12T21:26:10.279Z,7.03
2022-09-12T21:28:37.196Z,3.70
2022-09-12T21:31:04.590Z,4.28
2022-09-12T21:33:31.572Z,4.95
2022-09-12T21:36:04.206Z,5.22
2022-09-12T21:38:31.655Z,3.33
2022-09-12T21:41:14.972Z,2.95
2022-09-12T21:43:43.415Z,3.08
2022-09-12T21:46:11.267Z,2.88
2022-09-12T21:48:38.459Z,3.72
2022-09-12T21:51:05.829Z,5.95
2022-09-12T21:53:32.756Z,5.55
2022-09-12T21:56:05.744Z,5.60
2022-09-12T21:58:32.766Z,3.40
2022-09-12T22:01:00.976Z,5.30
2022-09-12T22:03:29.322Z,3.22
2022-09-12T22:06:02.104Z,4.32
2022-09-12T22:08:31.058Z,5.07
2022-09-12T22:11:05.741Z,7.32
2022-09-12T22:13:32.683Z,6.60
2022-09-12T22:16:01.047Z,7.45
2022-09-12T22:18:28.018Z,4.80
2022-09-12T22:21:12.286Z,6.03
2022-09-12T22:23:59.664Z,4.20
2022-09-12T22:26:27.557Z,4.10
2022-09-12T22:28:54.533Z,4.22
2022-09-12T22:31:21.845Z,4.45
2022-09-12T22:33:48.912Z,4.80
2022-09-12T22:36:15.843Z,6.68
2022-09-12T22:38:42.777Z,7.78
2022-09-12T22:41:12.084Z,6.90
2022-09-12T22:43:39.215Z,3.65
2022-09-12T22:46:12.408Z,4.05
2022-09-12T22:48:40.625Z,6.88
2022-09-12T22:51:07.943Z,4.75
2022-09-12T22:53:36.257Z,4.22
2022-09-12T22:56:05.073Z,5.07
2022-09-12T22:58:34.062Z,4.90
2022-09-12T23:01:06.069Z,8.63
2022-09-12T23:03:33.760Z,7.30
2022-09-12T23:06:00.713Z,3.80
2022-09-12T23:08:29.599Z,3.58
2022-09-12T23:11:17.688Z,5.80
2022-09-12T23:13:47.530Z,3.85
2022-09-12T23:16:23.793Z,4.28
2022-09-12T23:18:51.521Z,7.07
2022-09-12T23:21:21.655Z,3.80
2022-09-12T23:23:48.908Z,5.22
2022-09-12T23:26:18.365Z,4.22
2022-09-12T23:28:50.645Z,5.85
2022-09-12T23:31:17.586Z,5.57
2022-09-12T23:33:45.084Z,3.58
2022-09-12T23:36:14.421Z,5.30
2022-09-12T23:38:46.561Z,5.78
2022-09-12T23:41:17.409Z,7.00
2022-09-12T23:43:45.528Z,3.42
2022-09-12T23:46:14.589Z,5.10
2022-09-12T23:48:42.794Z,3.70
2022-09-12T23:51:10.825Z,4.30
2022-09-12T23:53:38.531Z,5.97
2022-09-12T23:56:06.897Z,3.00
2022-09-12T23:58:34.031Z,5.00
